createdAt,value
2018-06-16T00:04:01.581Z,101132.03
2018-06-16T00:09:07.765Z,101122.14
2018-06-16T00:14:10.775Z,101124.11
2018-06-16T00:19:13.829Z,101123.36
2018-06-16T00:24:16.831Z,101125.05
2018-06-16T00:29:19.837Z,101125.05
2018-06-16T00:34:22.856Z,101123.72
2018-06-16T00:39:25.841Z,101123.94
2018-06-16T00:44:28.854Z,101118.61
2018-06-16T00:49:32.098Z,101113.38
2018-06-16T00:54:35.070Z,101109.02
2018-06-16T00:59:38.081Z,101099.88
2018-06-16T01:04:42.194Z,101095.63
2018-06-16T01:09:45.657Z,101093.27
2018-06-16T01:14:49.346Z,101092.48
2018-06-16T01:19:53.616Z,101094.55
2018-06-16T01:24:57.575Z,101079.42
2018-06-16T01:30:00.726Z,101088.80
2018-06-16T01:35:03.781Z,101075.52
2018-06-16T01:40:06.854Z,101075.84
2018-06-16T01:45:09.857Z,101071.70
2018-06-16T01:50:12.897Z,101073.20
2018-06-16T01:55:15.958Z,101071.02
2018-06-16T02:00:18.961Z,101070.59
2018-06-16T02:05:21.978Z,101066.97
2018-06-16T02:10:25.003Z,101071.13
2018-06-16T02:15:28.047Z,101069.76
2018-06-16T02:20:31.043Z,101071.80
2018-06-16T02:25:34.033Z,101063.48
2018-06-16T02:30:37.298Z,101064.63
2018-06-16T02:35:40.358Z,101065.49
2018-06-16T02:40:43.382Z,101069.92
2018-06-16T02:45:46.394Z,101066.84
2018-06-16T02:50:49.438Z,101064.37
2018-06-16T02:55:52.458Z,101055.75
2018-06-16T03:00:55.471Z,101061.84
2018-06-16T03:05:58.477Z,100911.41
2018-06-16T03:11:01.481Z,101059.32
2018-06-16T03:16:04.574Z,101063.64
2018-06-16T03:21:07.597Z,101059.95
2018-06-16T03:26:10.650Z,101055.98
2018-06-16T03:31:13.698Z,101057.66
2018-06-16T03:36:16.718Z,101046.09
2018-06-16T03:41:19.759Z,101051.50
2018-06-16T03:46:22.814Z,101053.43
2018-06-16T03:51:25.842Z,101046.45
2018-06-16T03:56:28.870Z,101048.00
2018-06-16T04:01:33.358Z,101035.50
2018-06-16T04:06:36.439Z,101041.24
2018-06-16T04:11:39.729Z,101037.40
2018-06-16T04:16:42.943Z,101033.87
2018-06-16T04:21:46.008Z,101030.34
2018-06-16T04:26:49.001Z,101028.08
2018-06-16T04:31:52.062Z,101031.64
2018-06-16T04:36:55.050Z,101027.95
2018-06-16T04:41:58.113Z,101030.70
2018-06-16T04:47:01.238Z,101028.36
2018-06-16T04:52:04.274Z,101031.27
2018-06-16T04:57:07.354Z,101028.20
2018-06-16T05:02:10.325Z,101033.05
2018-06-16T05:07:13.337Z,101033.14
2018-06-16T05:12:16.425Z,101040.83
2018-06-16T05:17:19.596Z,101039.05
2018-06-16T05:22:22.620Z,101027.05
2018-06-16T05:27:25.690Z,101023.28
2018-06-16T05:32:28.716Z,101023.39
2018-06-16T05:37:31.702Z,101034.09
2018-06-16T05:42:34.705Z,101025.84
2018-06-16T05:47:37.746Z,101028.33
2018-06-16T05:52:40.790Z,101026.48
2018-06-16T05:57:43.836Z,101024.45
2018-06-16T06:02:47.026Z,101031.62
2018-06-16T06:07:50.161Z,101035.02
2018-06-16T06:12:53.169Z,101042.56
2018-06-16T06:17:57.931Z,101044.91
2018-06-16T06:23:01.094Z,101049.61
2018-06-16T06:28:04.182Z,101050.95
2018-06-16T06:33:07.242Z,101045.70
2018-06-16T06:38:12.089Z,101036.45
2018-06-16T06:43:15.204Z,101034.45
2018-06-16T06:48:18.277Z,101029.91
2018-06-16T06:53:21.318Z,101045.45
2018-06-16T06:58:26.392Z,101039.72
2018-06-16T07:03:29.458Z,101041.02
2018-06-16T07:08:32.433Z,101047.56
2018-06-16T07:13:35.503Z,101048.55
2018-06-16T07:18:38.485Z,101048.79
2018-06-16T07:23:41.490Z,101044.76
2018-06-16T07:28:44.533Z,101052.05
2018-06-16T07:33:47.537Z,101059.20
2018-06-16T07:38:50.634Z,101057.47
2018-06-16T07:43:53.577Z,101057.31
2018-06-16T07:48:56.602Z,101064.80
2018-06-16T07:53:59.565Z,101056.63
2018-06-16T07:59:02.658Z,101054.00
2018-06-16T08:04:05.695Z,101056.05
2018-06-16T08:09:09.780Z,101056.80
2018-06-16T08:14:12.803Z,101039.00
2018-06-16T08:19:15.830Z,101059.55
2018-06-16T08:24:18.873Z,101059.63
2018-06-16T08:29:21.865Z,101060.78
2018-06-16T08:34:24.907Z,101044.22
2018-06-16T08:39:27.958Z,101058.70
2018-06-16T08:44:30.939Z,101055.55
2018-06-16T08:49:33.917Z,101063.63
2018-06-16T08:54:36.918Z,101055.00
2018-06-16T08:59:39.968Z,101051.21
2018-06-16T09:04:43.002Z,101054.30
2018-06-16T09:09:46.049Z,101048.78
2018-06-16T09:14:49.067Z,101051.93
2018-06-16T09:19:52.147Z,101053.11
2018-06-16T09:24:55.121Z,101048.61
2018-06-16T09:29:58.193Z,101041.16
2018-06-16T09:35:01.223Z,101047.06
2018-06-16T09:40:04.347Z,101038.96
2018-06-16T09:45:07.319Z,101040.15
2018-06-16T09:50:10.303Z,101039.80
2018-06-16T09:55:13.371Z,101044.18
2018-06-16T10:00:22.033Z,101034.59
2018-06-16T10:05:25.027Z,101030.50
2018-06-16T10:10:28.030Z,101034.95
2018-06-16T10:15:31.094Z,101028.66
2018-06-16T10:20:34.185Z,101020.56
2018-06-16T10:25:37.319Z,101026.42
2018-06-16T10:30:40.424Z,101018.69
2018-06-16T10:35:43.452Z,101025.73
2018-06-16T10:40:46.449Z,101015.91
2018-06-16T10:45:49.561Z,101015.80
2018-06-16T10:50:52.570Z,101006.02
2018-06-16T10:55:55.625Z,101008.45
2018-06-16T11:00:58.825Z,101012.98
2018-06-16T11:06:01.978Z,101003.24
2018-06-16T11:11:05.114Z,101013.06
2018-06-16T11:16:08.187Z,101002.97
2018-06-16T11:21:11.229Z,100991.95
2018-06-16T11:26:14.293Z,100989.05
2018-06-16T11:31:17.336Z,100980.27
2018-06-16T11:36:20.474Z,100972.70
2018-06-16T11:41:23.478Z,100971.66
2018-06-16T11:46:26.510Z,100969.30
2018-06-16T11:51:29.793Z,100961.78
2018-06-16T11:56:33.488Z,100958.86
2018-06-16T12:01:36.629Z,100953.47
2018-06-16T12:06:39.940Z,100957.31
2018-06-16T12:11:43.289Z,100949.73
2018-06-16T12:16:46.405Z,100945.27
2018-06-16T12:21:49.435Z,100935.58
2018-06-16T12:26:52.426Z,100933.25
2018-06-16T12:31:55.474Z,100941.19
2018-06-16T12:36:58.593Z,100939.88
2018-06-16T12:42:01.606Z,100938.95
2018-06-16T12:47:04.710Z,100932.72
2018-06-16T12:52:07.750Z,100934.97
2018-06-16T12:57:10.837Z,100933.77
2018-06-16T13:02:13.853Z,100931.53
2018-06-16T13:07:16.885Z,100920.17
2018-06-16T13:12:19.902Z,100925.82
2018-06-16T13:17:22.922Z,100921.85
2018-06-16T13:22:26.042Z,100918.16
2018-06-16T13:27:29.065Z,100918.31
2018-06-16T13:32:32.097Z,100926.58
2018-06-16T13:37:35.101Z,100921.45
2018-06-16T13:42:38.125Z,100934.61
2018-06-16T13:47:41.108Z,100931.72
2018-06-16T13:52:44.105Z,100926.55
2018-06-16T13:57:47.095Z,100916.55
2018-06-16T14:02:50.075Z,100919.39
2018-06-16T14:07:53.152Z,100932.14
2018-06-16T14:12:56.237Z,100922.23
2018-06-16T14:17:59.225Z,100926.05
2018-06-16T14:23:02.312Z,100932.02
2018-06-16T14:28:06.854Z,100928.73
2018-06-16T14:33:11.391Z,100922.94
2018-06-16T14:38:16.886Z,100910.11
2018-06-16T14:43:19.973Z,100916.02
2018-06-16T14:48:23.079Z,100925.64
2018-06-16T14:53:26.114Z,100924.72
2018-06-16T14:58:29.130Z,100924.44
2018-06-16T15:03:32.150Z,100917.33
2018-06-16T15:08:35.954Z,100916.98
2018-06-16T15:13:38.944Z,100916.55
2018-06-16T15:18:42.337Z,100918.43
2018-06-16T15:23:45.330Z,100912.34
2018-06-16T15:28:48.317Z,100913.16
2018-06-16T15:33:51.277Z,100905.55
2018-06-16T15:38:54.281Z,100900.14
2018-06-16T15:43:57.261Z,100896.38
2018-06-16T15:49:00.332Z,100888.86
2018-06-16T15:54:03.367Z,100886.69
2018-06-16T15:59:06.336Z,100880.73
2018-06-16T16:04:09.305Z,100875.42
2018-06-16T16:09:12.281Z,100873.03
2018-06-16T16:14:15.338Z,100865.48
2018-06-16T16:19:18.345Z,100861.29
2018-06-16T16:24:21.353Z,100848.89
2018-06-16T16:29:24.360Z,100842.34
2018-06-16T16:34:28.899Z,100833.25
2018-06-16T16:39:31.994Z,100835.38
2018-06-16T16:44:35.041Z,100837.59
2018-06-16T16:49:38.035Z,100835.76
2018-06-16T16:54:41.016Z,100833.73
2018-06-16T16:59:44.006Z,100832.05
2018-06-16T17:04:47.005Z,100840.20
2018-06-16T17:09:50.011Z,100840.23
2018-06-16T17:14:53.078Z,100844.64
2018-06-16T17:19:56.072Z,100841.43
2018-06-16T17:24:59.443Z,100845.38
2018-06-16T17:30:02.469Z,100849.09
2018-06-16T17:35:05.921Z,100849.56
2018-06-16T17:40:08.902Z,100852.54
2018-06-16T17:45:11.918Z,100848.17
2018-06-16T17:50:14.995Z,100851.02
2018-06-16T17:55:18.085Z,100850.15
2018-06-16T18:00:21.191Z,100857.84
2018-06-16T18:05:24.563Z,100855.14
2018-06-16T18:10:27.674Z,100852.69
2018-06-16T18:15:30.783Z,100846.11
2018-06-16T18:20:33.917Z,100845.27
2018-06-16T18:25:36.988Z,100841.42
2018-06-16T18:30:40.113Z,100843.27
2018-06-16T18:35:43.215Z,100842.41
2018-06-16T18:40:46.295Z,100841.98
2018-06-16T18:45:49.365Z,100833.30
2018-06-16T18:50:52.424Z,100825.94
2018-06-16T18:55:55.486Z,100832.31
2018-06-16T19:00:58.476Z,100830.61
2018-06-16T19:06:01.574Z,100834.05
2018-06-16T19:11:04.610Z,100833.97
2018-06-16T19:16:07.757Z,100835.06
2018-06-16T19:21:10.711Z,100833.10
2018-06-16T19:26:13.709Z,100837.48
2018-06-16T19:31:16.823Z,100816.77
2018-06-16T19:36:19.878Z,100847.55
2018-06-16T19:41:24.257Z,100840.39
2018-06-16T19:46:28.538Z,100841.31
2018-06-16T19:51:31.699Z,100842.95
2018-06-16T19:56:34.734Z,100844.75
2018-06-16T20:01:37.706Z,100853.98
2018-06-16T20:06:40.798Z,100859.88
2018-06-16T20:11:48.319Z,100861.22
2018-06-16T20:16:51.349Z,100860.66
2018-06-16T20:21:54.371Z,100860.92
2018-06-16T20:26:57.369Z,100857.87
2018-06-16T20:32:00.349Z,100876.91
2018-06-16T20:37:03.410Z,100892.82
2018-06-16T20:42:06.450Z,100945.86
2018-06-16T20:47:09.461Z,100978.95
2018-06-16T20:52:12.493Z,100984.35
2018-06-16T20:57:15.516Z,100985.12
2018-06-16T21:02:18.526Z,100980.55
2018-06-16T21:07:21.541Z,100979.95
2018-06-16T21:12:24.606Z,100973.53
2018-06-16T21:17:27.730Z,100976.22
2018-06-16T21:22:31.850Z,100957.85
2018-06-16T21:27:34.955Z,100964.97
2018-06-16T21:32:38.095Z,100959.22
2018-06-16T21:37:41.168Z,100956.38
2018-06-16T21:42:44.187Z,100960.13
2018-06-16T21:47:47.233Z,100957.55
2018-06-16T21:52:50.308Z,100954.45
2018-06-16T21:57:53.408Z,100958.25
2018-06-16T22:02:56.496Z,100968.38
2018-06-16T22:08:05.174Z,100970.08
2018-06-16T22:13:08.189Z,100983.44
2018-06-16T22:18:11.363Z,100994.48
2018-06-16T22:23:14.422Z,101006.27
2018-06-16T22:28:17.462Z,101009.80
2018-06-16T22:33:20.480Z,101008.75
2018-06-16T22:38:23.631Z,100995.55
2018-06-16T22:43:27.115Z,100980.89
2018-06-16T22:48:30.386Z,100970.73
2018-06-16T22:53:33.385Z,100969.74
2018-06-16T22:58:36.429Z,100984.83
2018-06-16T23:03:39.743Z,100980.84
2018-06-16T23:08:42.764Z,100975.23
2018-06-16T23:13:45.882Z,100965.07
2018-06-16T23:18:48.963Z,100972.19
2018-06-16T23:23:51.983Z,100988.59
2018-06-16T23:28:55.123Z,100988.06
2018-06-16T23:33:58.400Z,100996.58
2018-06-16T23:39:01.404Z,100992.27
2018-06-16T23:44:04.497Z,100986.37
2018-06-16T23:49:07.910Z,100983.83
2018-06-16T23:54:10.926Z,100986.95
2018-06-16T23:59:14.201Z,100981.89
